Time,TemperatureF,DewpointF,PressureIn,WindDirection,WindDirectionDegrees,WindSpeedMPH,WindSpeedGustMPH,Humidity,HourlyPrecipIn,Conditions,Clouds,dailyrainin,SolarRadiationWatts/m^2,SoftwareType,DateUTC
2013-05-13 00:03:00,53.0,27.0,-100.00,WNW,302,3.0,9.0,36,0.00,,,0.01,0.000000,,2013-05-13 04:03:00,
2013-05-13 00:33:00,51.0,26.0,-100.00,NW,312,3.0,7.0,37,0.00,,,0.01,0.000000,,2013-05-13 04:33:00,
2013-05-13 00:42:00,51.0,26.0,-100.00,NW,312,3.0,7.0,37,0.00,,,0.01,0.000000,,2013-05-13 04:42:00,
2013-05-13 00:53:00,51.0,26.0,-100.00,NW,312,3.0,7.0,37,0.00,,,0.01,0.000000,,2013-05-13 04:53:00,
2013-05-13 01:02:00,51.0,26.0,-100.00,NW,312,3.0,7.0,37,0.00,,,0.01,0.000000,,2013-05-13 05:02:00,
2013-05-13 01:32:00,50.0,28.0,-100.00,NW,307,3.0,7.0,42,0.00,,,0.01,0.000000,,2013-05-13 05:32:00,
2013-05-13 01:42:00,50.0,28.0,-100.00,NW,307,3.0,7.0,42,0.00,,,0.01,0.000000,,2013-05-13 05:42:00,
2013-05-13 01:52:00,50.0,28.0,-100.00,NW,307,3.0,7.0,42,0.00,,,0.01,0.000000,,2013-05-13 05:52:00,
2013-05-13 02:01:00,50.0,28.0,-100.00,NW,307,3.0,7.0,42,0.00,,,0.01,0.000000,,2013-05-13 06:01:00,
2013-05-13 02:32:00,49.0,33.0,-100.00,NW,314,4.0,6.0,54,0.00,,,0.01,0.000000,,2013-05-13 06:32:00,
2013-05-13 02:42:00,49.0,33.0,-100.00,NW,314,4.0,6.0,54,0.00,,,0.01,0.000000,,2013-05-13 06:42:00,
2013-05-13 02:52:00,49.0,33.0,-100.00,NW,314,4.0,6.0,54,0.00,,,0.01,0.000000,,2013-05-13 06:52:00,
2013-05-13 03:01:00,49.0,33.0,-100.00,NW,314,4.0,6.0,54,0.00,,,0.01,0.000000,,2013-05-13 07:01:00,
2013-05-13 03:32:00,48.0,30.0,-100.00,NW,314,3.0,5.0,50,0.00,,,0.01,0.000000,,2013-05-13 07:32:00,
2013-05-13 03:42:00,48.0,30.0,-100.00,NW,314,3.0,5.0,50,0.00,,,0.01,0.000000,,2013-05-13 07:42:00,
2013-05-13 03:52:00,48.0,30.0,-100.00,NW,314,3.0,5.0,50,0.00,,,0.01,0.000000,,2013-05-13 07:52:00,
2013-05-13 04:02:00,48.0,30.0,-100.00,NW,314,3.0,5.0,50,0.00,,,0.01,0.000000,,2013-05-13 08:02:00,
2013-05-13 04:32:00,47.0,28.0,-100.00,NW,306,1.0,5.0,48,0.00,,,0.01,0.000000,,2013-05-13 08:32:00,
2013-05-13 04:42:00,47.0,28.0,-100.00,NW,306,1.0,5.0,48,0.00,,,0.01,0.000000,,2013-05-13 08:42:00,
2013-05-13 04:52:00,47.0,28.0,-100.00,NW,306,1.0,5.0,48,0.00,,,0.01,0.000000,,2013-05-13 08:52:00,
2013-05-13 05:01:00,47.0,28.0,-100.00,NW,306,1.0,5.0,48,0.00,,,0.01,0.000000,,2013-05-13 09:01:00,
2013-05-13 05:33:00,45.0,28.0,-100.00,WNW,296,2.0,5.0,52,0.00,,,0.01,0.000000,,2013-05-13 09:33:00,
2013-05-13 05:42:00,45.0,28.0,-100.00,WNW,296,2.0,5.0,52,0.00,,,0.01,0.000000,,2013-05-13 09:42:00,
2013-05-13 05:52:00,45.0,28.0,-100.00,WNW,296,2.0,5.0,52,0.00,,,0.01,0.000000,,2013-05-13 09:52:00,
2013-05-13 06:03:00,45.0,28.0,-100.00,WNW,296,2.0,5.0,52,0.00,,,0.01,0.000000,,2013-05-13 10:03:00,
2013-05-13 06:33:00,42.0,31.0,-100.00,WNW,287,1.0,2.0,66,0.00,,,0.00,0.000000,,2013-05-13 10:33:00,
2013-05-13 06:43:00,42.0,31.0,-100.00,WNW,287,1.0,2.0,66,0.00,,,0.00,0.000000,,2013-05-13 10:43:00,
2013-05-13 06:52:00,42.0,31.0,-100.00,WNW,287,1.0,2.0,66,0.00,,,0.00,0.000000,,2013-05-13 10:52:00,
2013-05-13 07:02:00,42.0,31.0,-100.00,WNW,287,1.0,2.0,66,0.00,,,0.00,0.000000,,2013-05-13 11:02:00,
2013-05-13 07:32:00,43.0,35.0,-100.00,WNW,296,3.0,5.0,73,0.00,,,0.00,15.000000,,2013-05-13 11:32:00,
2013-05-13 07:42:00,43.0,35.0,-100.00,WNW,296,3.0,5.0,73,0.00,,,0.00,15.000000,,2013-05-13 11:42:00,
2013-05-13 07:52:00,43.0,35.0,-100.00,WNW,296,3.0,5.0,73,0.00,,,0.00,15.000000,,2013-05-13 11:52:00,
2013-05-13 08:02:00,43.0,35.0,-100.00,WNW,296,3.0,5.0,73,0.00,,,0.00,15.000000,,2013-05-13 12:02:00,
2013-05-13 08:32:00,46.0,35.0,-100.00,NW,304,4.0,6.0,66,0.00,,,-99.99,146.000000,,2013-05-13 12:32:00,
2013-05-13 08:42:00,46.0,35.0,-100.00,NW,304,4.0,6.0,66,0.00,,,-99.99,146.000000,,2013-05-13 12:42:00,
2013-05-13 08:52:00,46.0,35.0,-100.00,NW,304,4.0,6.0,66,0.00,,,-99.99,146.000000,,2013-05-13 12:52:00,
2013-05-13 09:01:00,46.0,35.0,-100.00,NW,304,4.0,6.0,66,0.00,,,-99.99,146.000000,,2013-05-13 13:01:00,
2013-05-13 09:32:00,53.0,36.0,-100.00,WNW,301,3.0,8.0,52,0.00,,,0.00,406.000000,,2013-05-13 13:32:00,
2013-05-13 09:42:00,53.0,36.0,-100.00,WNW,301,3.0,8.0,52,0.00,,,0.00,406.000000,,2013-05-13 13:42:00,
2013-05-13 09:52:00,53.0,36.0,-100.00,WNW,301,3.0,8.0,52,0.00,,,0.00,406.000000,,2013-05-13 13:52:00,
2013-05-13 10:02:00,53.0,36.0,-100.00,WNW,301,3.0,8.0,52,0.00,,,0.00,406.000000,,2013-05-13 14:02:00,
2013-05-13 10:32:00,59.0,34.0,-100.00,NW,307,2.0,5.0,39,0.00,,,0.00,648.000000,,2013-05-13 14:32:00,
2013-05-13 10:42:00,59.0,34.0,-100.00,NW,307,2.0,5.0,39,0.00,,,0.00,648.000000,,2013-05-13 14:42:00,
2013-05-13 10:52:00,59.0,34.0,-100.00,NW,307,2.0,5.0,39,0.00,,,0.00,648.000000,,2013-05-13 14:52:00,
2013-05-13 11:01:00,59.0,34.0,-100.00,NW,307,2.0,5.0,39,0.00,,,0.00,648.000000,,2013-05-13 15:01:00,
2013-05-13 11:32:00,61.0,31.0,-100.00,NNW,340,3.0,6.0,32,0.00,,,0.00,861.000000,,2013-05-13 15:32:00,
2013-05-13 11:42:00,61.0,31.0,-100.00,NNW,340,3.0,6.0,32,0.00,,,0.00,861.000000,,2013-05-13 15:42:00,
2013-05-13 11:53:00,61.0,31.0,-100.00,NNW,340,3.0,6.0,32,0.00,,,0.00,861.000000,,2013-05-13 15:53:00,
2013-05-13 12:03:00,61.0,31.0,-100.00,NNW,340,3.0,6.0,32,0.00,,,0.00,861.000000,,2013-05-13 16:03:00,
2013-05-13 12:34:00,65.0,25.0,-100.00,NW,307,4.0,10.0,22,0.00,,,0.00,1023.000000,,2013-05-13 16:34:00,
2013-05-13 12:43:00,65.0,25.0,-100.00,NW,307,4.0,10.0,22,0.00,,,0.00,1023.000000,,2013-05-13 16:43:00,
2013-05-13 12:53:00,65.0,25.0,-100.00,NW,307,4.0,10.0,22,0.00,,,0.00,1023.000000,,2013-05-13 16:53:00,
2013-05-13 13:02:00,65.0,25.0,-100.00,NW,307,4.0,10.0,22,0.00,,,0.00,1023.000000,,2013-05-13 17:02:00,
2013-05-13 13:32:00,67.0,23.0,-100.00,NW,306,4.0,14.0,19,0.00,,,0.00,1127.000000,,2013-05-13 17:32:00,
2013-05-13 13:42:00,67.0,23.0,-100.00,NW,306,4.0,14.0,19,0.00,,,0.00,1127.000000,,2013-05-13 17:42:00,
2013-05-13 13:54:00,67.0,23.0,-100.00,NW,306,4.0,14.0,19,0.00,,,0.00,1127.000000,,2013-05-13 17:54:00,
2013-05-13 14:04:00,67.0,23.0,-100.00,NW,306,4.0,14.0,19,0.00,,,0.00,1127.000000,,2013-05-13 18:04:00,
2013-05-13 15:33:00,71.0,30.0,-100.00,West,281,4.0,9.0,22,-99.99,,,0.00,1103.000000,,2013-05-13 19:33:00,
2013-05-13 15:44:00,71.0,30.0,-100.00,West,281,4.0,9.0,22,-99.99,,,0.00,1103.000000,,2013-05-13 19:44:00,
2013-05-13 15:53:00,71.0,30.0,-100.00,West,281,4.0,9.0,22,-99.99,,,0.00,1103.000000,,2013-05-13 19:53:00,
2013-05-13 16:02:00,71.0,30.0,-100.00,West,281,4.0,9.0,22,-99.99,,,0.00,1103.000000,,2013-05-13 20:02:00,
2013-05-13 16:34:00,73.0,27.0,-100.00,West,275,2.0,10.0,18,0.00,,,0.00,994.000000,,2013-05-13 20:34:00,
2013-05-13 16:44:00,73.0,27.0,-100.00,West,275,2.0,10.0,18,0.00,,,0.00,994.000000,,2013-05-13 20:44:00,
2013-05-13 16:53:00,73.0,27.0,-100.00,West,275,2.0,10.0,18,0.00,,,0.00,994.000000,,2013-05-13 20:53:00,
2013-05-13 17:03:00,73.0,27.0,-100.00,West,275,2.0,10.0,18,0.00,,,0.00,994.000000,,2013-05-13 21:03:00,
2013-05-13 17:34:00,72.0,26.0,-100.00,WNW,298,3.0,8.0,18,0.00,,,0.00,828.000000,,2013-05-13 21:34:00,
2013-05-13 17:44:00,72.0,26.0,-100.00,WNW,298,3.0,8.0,18,0.00,,,0.00,828.000000,,2013-05-13 21:44:00,
2013-05-13 17:53:00,72.0,26.0,-100.00,WNW,298,3.0,8.0,18,0.00,,,0.00,828.000000,,2013-05-13 21:53:00,
2013-05-13 18:03:00,72.0,26.0,-100.00,WNW,298,3.0,8.0,18,0.00,,,0.00,828.000000,,2013-05-13 22:03:00,
2013-05-13 18:32:00,66.0,25.0,-100.00,NNW,329,4.0,9.0,21,0.00,,,0.00,550.000000,,2013-05-13 22:32:00,
2013-05-13 18:43:00,66.0,25.0,-100.00,NNW,329,4.0,9.0,21,0.00,,,0.00,550.000000,,2013-05-13 22:43:00,
2013-05-13 18:52:00,66.0,25.0,-100.00,NNW,329,4.0,9.0,21,0.00,,,0.00,550.000000,,2013-05-13 22:52:00,
2013-05-13 19:02:00,66.0,25.0,-100.00,NNW,329,4.0,9.0,21,0.00,,,0.00,550.000000,,2013-05-13 23:02:00,
2013-05-13 19:34:00,62.0,25.0,-100.00,NW,318,3.0,10.0,24,0.00,,,0.00,146.000000,,2013-05-13 23:34:00,
2013-05-13 19:42:00,62.0,25.0,-100.00,NW,318,3.0,10.0,24,0.00,,,0.00,146.000000,,2013-05-13 23:42:00,
2013-05-13 19:54:00,62.0,25.0,-100.00,NW,318,3.0,10.0,24,0.00,,,0.00,146.000000,,2013-05-13 23:54:00,
2013-05-13 20:02:00,62.0,25.0,-100.00,NW,318,3.0,10.0,24,0.00,,,0.00,146.000000,,2013-05-14 00:02:00,
2013-05-13 21:32:00,54.0,31.0,-100.00,WNW,284,2.0,5.0,42,-99.99,,,0.00,3.000000,,2013-05-14 01:32:00,
2013-05-13 21:43:00,54.0,31.0,-100.00,WNW,284,2.0,5.0,42,-99.99,,,0.00,3.000000,,2013-05-14 01:43:00,
2013-05-13 21:53:00,54.0,31.0,-100.00,WNW,284,2.0,5.0,42,-99.99,,,0.00,3.000000,,2013-05-14 01:53:00,
2013-05-13 22:02:00,54.0,31.0,-100.00,WNW,284,2.0,5.0,42,-99.99,,,0.00,3.000000,,2013-05-14 02:02:00,
2013-05-13 22:32:00,53.0,29.0,-100.00,NW,318,3.0,4.0,39,0.00,,,0.00,0.000000,,2013-05-14 02:32:00,
2013-05-13 22:42:00,53.0,29.0,-100.00,NW,318,3.0,4.0,39,0.00,,,0.00,0.000000,,2013-05-14 02:42:00,
2013-05-13 22:52:00,53.0,29.0,-100.00,NW,318,3.0,4.0,39,0.00,,,0.00,0.000000,,2013-05-14 02:52:00,
2013-05-13 23:01:00,53.0,29.0,-100.00,NW,318,3.0,4.0,39,0.00,,,0.00,0.000000,,2013-05-14 03:01:00,
2013-05-13 23:33:00,49.0,34.0,-100.00,WNW,295,3.0,4.0,56,0.00,,,0.00,0.000000,,2013-05-14 03:33:00,
2013-05-13 23:43:00,49.0,34.0,-100.00,WNW,295,3.0,4.0,56,0.00,,,0.00,0.000000,,2013-05-14 03:43:00,
2013-05-13 23:53:00,49.0,34.0,-100.00,WNW,295,3.0,4.0,56,0.00,,,0.00,0.000000,,2013-05-14 03:53:00,